Airfield :
LOGIN :

Register | Disclaimer

   EN    FR    IT 

 










Legend :    VFR   Marginal VFR   IFR   Intensive IFR   Very Intensive IFR
Visi :
Ceiling :
>= 8 km
>= 3000ft
5 to 8 km
1000 to 3000 ft
1500m to 5 km
500 to 1000 ft
800 to 1500m
200 to 500 ft
< 800m
< 200 ft
Symbols :   Thunderstorms  Fog  Heavy snow  Heavy precipitations  Wind > 20 kt
SIGMETs :     Misc.  Thunderstorms  Icing  Turbulence  Mountain Waves  Volcanic Ashes







- Airport Elevation : 19 ft
- IATA code : LCY
- Download approach charts


EGLC - London City

CURRENT METAR :
  • 160620Z AUTO 25005KT 210V300 9999 BKN033 18/15 Q1021

EXPIRED METARs :
  • 160550Z AUTO 29006KT 9999 FEW031 18/15 Q1021
  • 160520Z AUTO 28006KT 9999 FEW014 BKN019 18/15 Q1021
  • 160450Z AUTO 24006KT 9999 FEW014 BKN029 18/15 Q1020
  • 160420Z AUTO VRB03KT 9999 BKN028 18/15 Q1021
  • 160350Z AUTO 28005KT 210V310 9999 OVC028 18/15 Q1021

TAF TAF EGLC
Valid from the 16 at 06:00 until the 16 at 15:00 UTC


160503Z 1606/1615 30006KT 9999 FEW035
PROB30
TEMPO 1609/1613 BKN014
BECMG 1613/1615 BKN014
ATIS : +44 20 7646 0224
No reported NOTAMs for that airfield.



MET'MAP, your aeronautical weather chart ! - Copyright ORBIFLY December 2007 - Disclaimer

ORBIFLY MET'MAP TEAM :

Programming & Development : Alexandra Zaïnal
Concept & Development : Baudouin d'Aumeries
Co-Development & Prog : Marc-Olivier Méhu
Technical & hardware support : Manuel Goepfert

Contact : metmap@orbifly.com




SOURCES & CREDITS :

   NOAA